Time;durP1;ratioP1;P1;durP2;ratioP2;P2;SDS_P1;SDS_P2;PMS_P1;PMS_P2;Temp;Humidity;BMP_temperature;BMP_pressure;BME280_temperature;BME280_humidity;BME280_pressure;Samples;Min_cycle;Max_cycle;Signal;HPM_P1;HPM_P2
2021/09/23 00:00:16;;;;;;;8.80;6.28;;;13.40;65.30;;;;;;5052267;28;20025;-63
2021/09/23 00:05:22;;;;;;;10.75;7.45;;;13.40;66.00;;;;;;5055078;28;20494;-64
2021/09/23 00:07:50;;;;;;;10.63;6.65;;;13.30;66.60;;;;;;5055426;28;20024;-63
2021/09/23 00:10:19;;;;;;;9.13;5.95;;;13.30;66.70;;;;;;5062600;28;20044;-64
2021/09/23 00:12:45;;;;;;;12.25;7.00;;;13.40;66.60;;;;;;5051473;28;20036;-63
2021/09/23 00:15:14;;;;;;;9.48;6.90;;;13.30;66.50;;;;;;5050715;28;20040;-63
2021/09/23 00:17:48;;;;;;;10.73;6.40;;;13.30;66.50;;;;;;5057211;28;20528;-64
2021/09/23 00:20:22;;;;;;;10.10;6.35;;;13.30;66.30;;;;;;5051787;28;20021;-64
2021/09/23 00:22:48;;;;;;;10.33;5.13;;;13.30;66.10;;;;;;5056677;28;20025;-64
2021/09/23 00:25:15;;;;;;;6.97;4.57;;;13.30;66.40;;;;;;5054664;28;20021;-63
2021/09/23 00:27:41;;;;;;;12.25;5.18;;;13.30;65.70;;;;;;5051958;28;20037;-63
2021/09/23 00:30:09;;;;;;;8.55;5.25;;;13.30;65.80;;;;;;5060723;28;20044;-64
2021/09/23 00:32:35;;;;;;;12.70;5.13;;;13.30;65.70;;;;;;5090700;28;20051;-63
2021/09/23 00:35:01;;;;;;;7.65;4.47;;;13.20;65.70;;;;;;5060265;28;20025;-64
2021/09/23 00:37:27;;;;;;;7.60;4.50;;;13.20;65.60;;;;;;5054105;28;20029;-63
2021/09/23 00:39:53;;;;;;;7.57;5.07;;;13.20;65.50;;;;;;5061059;28;20441;-65
2021/09/23 00:42:19;;;;;;;10.63;5.47;;;13.10;65.50;;;;;;5071478;28;20134;-62
2021/09/23 00:45:00;;;;;;;10.25;7.70;;;13.10;65.50;;;;;;5054821;28;20428;-63
2021/09/23 00:47:26;;;;;;;9.75;7.00;;;13.10;65.80;;;;;;5051603;28;20029;-62
2021/09/23 00:49:52;;;;;;;12.00;7.40;;;13.10;66.30;;;;;;5051988;28;20021;-65
2021/09/23 00:52:19;;;;;;;8.07;5.47;;;13.10;66.40;;;;;;5067163;28;20081;-63
2021/09/23 00:54:49;;;;;;;8.63;6.28;;;13.00;66.20;;;;;;5058104;28;20023;-63
2021/09/23 00:57:17;;;;;;;12.35;7.70;;;13.10;66.10;;;;;;5051605;28;20123;-64
2021/09/23 00:59:47;;;;;;;10.98;6.70;;;13.00;66.30;;;;;;5051639;28;20035;-63
2021/09/23 01:02:12;;;;;;;12.75;6.82;;;13.00;66.60;;;;;;5051761;28;20047;-65
2021/09/23 01:04:43;;;;;;;12.52;7.25;;;13.00;66.70;;;;;;5050553;28;20037;-64
2021/09/23 01:07:13;;;;;;;11.85;6.45;;;13.00;67.00;;;;;;5066136;28;20542;-63
2021/09/23 01:09:51;;;;;;;11.55;6.43;;;13.00;67.20;;;;;;5053617;28;20056;-63
2021/09/23 01:12:19;;;;;;;13.15;6.90;;;13.00;67.30;;;;;;5051972;28;20514;-63
2021/09/23 01:14:46;;;;;;;9.35;6.43;;;13.00;67.70;;;;;;5059386;28;20024;-63
2021/09/23 01:17:12;;;;;;;11.77;6.10;;;13.00;67.70;;;;;;5059778;28;20400;-63
2021/09/23 01:19:39;;;;;;;12.90;6.07;;;12.90;67.70;;;;;;5053419;28;20021;-65
2021/09/23 01:22:05;;;;;;;12.45;6.88;;;12.90;67.60;;;;;;5052627;28;20035;-65
2021/09/23 01:24:31;;;;;;;12.27;6.38;;;12.90;67.50;;;;;;5063481;28;20036;-65
2021/09/23 01:27:00;;;;;;;11.45;6.18;;;12.90;67.60;;;;;;5071895;28;20037;-64
2021/09/23 01:29:26;;;;;;;10.10;5.28;;;13.00;67.60;;;;;;5069879;28;20036;-64
2021/09/23 01:31:53;;;;;;;8.07;5.47;;;13.00;67.50;;;;;;5051911;28;20036;-64
2021/09/23 01:34:19;;;;;;;9.35;5.78;;;13.00;67.50;;;;;;5051473;28;20021;-64
2021/09/23 01:36:46;;;;;;;11.02;6.32;;;13.00;67.60;;;;;;5067456;28;20043;-64
2021/09/23 01:39:19;;;;;;;8.95;5.25;;;13.00;67.70;;;;;;5050443;28;20387;-64
2021/09/23 01:41:45;;;;;;;13.55;6.50;;;12.90;67.60;;;;;;5050452;28;20033;-65
2021/09/23 01:44:11;;;;;;;9.55;5.88;;;12.90;67.60;;;;;;5051584;28;20055;-65
2021/09/23 01:46:36;;;;;;;9.32;5.72;;;12.90;67.70;;;;;;5058760;28;20028;-64
2021/09/23 01:49:02;;;;;;;9.45;5.68;;;12.90;67.70;;;;;;5071564;28;20028;-64
2021/09/23 01:51:28;;;;;;;7.57;5.10;;;12.90;67.70;;;;;;5053686;28;20029;-64
2021/09/23 01:53:54;;;;;;;9.07;5.38;;;12.90;67.60;;;;;;5071127;28;20043;-64
2021/09/23 01:56:20;;;;;;;7.55;4.93;;;12.90;67.50;;;;;;5068491;28;20029;-64
2021/09/23 01:58:46;;;;;;;6.57;4.32;;;12.90;67.30;;;;;;5071105;28;20028;-62
2021/09/23 02:01:12;;;;;;;9.60;5.93;;;12.90;67.20;;;;;;5054105;28;20028;-63
2021/09/23 02:03:38;;;;;;;9.65;4.95;;;12.90;67.30;;;;;;5051467;28;20048;-63
2021/09/23 02:06:04;;;;;;;11.07;5.55;;;12.90;67.50;;;;;;5054490;28;20028;-63
2021/09/23 02:08:30;;;;;;;10.05;6.25;;;12.90;67.70;;;;;;5066907;28;20024;-62
2021/09/23 02:10:55;;;;;;;9.93;6.55;;;12.90;67.90;;;;;;5075355;28;20420;-63
2021/09/23 02:13:21;;;;;;;12.52;6.60;;;13.00;68.00;;;;;;5073303;28;20040;-64
2021/09/23 02:15:47;;;;;;;8.93;6.03;;;13.00;67.90;;;;;;5057000;28;20037;-64
2021/09/23 02:18:13;;;;;;;5.90;4.70;;;13.10;67.80;;;;;;5054969;28;20037;-63
2021/09/23 02:20:38;;;;;;;11.02;4.63;;;13.20;67.70;;;;;;5066982;28;20083;-64
2021/09/23 02:23:04;;;;;;;12.82;6.03;;;13.20;67.40;;;;;;5064571;28;20020;-64
2021/09/23 02:25:30;;;;;;;11.80;6.10;;;13.30;67.20;;;;;;5063743;28;20176;-63
2021/09/23 02:27:56;;;;;;;8.60;5.72;;;13.30;66.90;;;;;;5054954;28;20067;-63
2021/09/23 02:30:21;;;;;;;12.45;5.50;;;13.40;66.70;;;;;;5054906;28;20029;-63
2021/09/23 02:32:47;;;;;;;10.60;6.05;;;13.30;66.50;;;;;;5067438;28;20061;-64
2021/09/23 02:35:13;;;;;;;11.40;5.82;;;13.40;66.40;;;;;;5072461;28;20025;-63
2021/09/23 02:37:39;;;;;;;7.95;4.82;;;13.30;66.30;;;;;;5074589;28;20017;-63
2021/09/23 02:40:05;;;;;;;9.18;5.45;;;13.30;66.30;;;;;;5066449;28;20032;-64
2021/09/23 02:42:31;;;;;;;6.53;4.80;;;13.20;66.30;;;;;;5071551;28;20107;-63
2021/09/23 02:44:57;;;;;;;8.73;4.70;;;13.20;66.20;;;;;;5073514;28;20170;-62
2021/09/23 02:47:23;;;;;;;9.38;5.32;;;13.20;66.90;;;;;;5073445;28;20051;-64
2021/09/23 02:49:51;;;;;;;7.30;4.20;;;13.10;66.40;;;;;;5063244;28;20025;-63
2021/09/23 02:52:18;;;;;;;12.98;5.13;;;13.10;66.10;;;;;;5066004;28;20021;-63
2021/09/23 02:54:44;;;;;;;6.72;4.05;;;13.00;66.00;;;;;;5069368;28;20104;-64
2021/09/23 02:57:10;;;;;;;9.45;5.05;;;13.00;66.00;;;;;;5059725;28;20120;-64
2021/09/23 02:59:37;;;;;;;9.70;4.20;;;13.00;66.00;;;;;;5056152;28;20032;-63
2021/09/23 03:02:02;;;;;;;13.57;5.35;;;12.90;66.00;;;;;;5069757;28;20061;-63
2021/09/23 03:04:28;;;;;;;6.30;4.13;;;12.90;66.30;;;;;;5087525;28;20077;-65
2021/09/23 03:06:54;;;;;;;9.50;5.35;;;12.80;66.20;;;;;;5050893;28;20040;-64
2021/09/23 03:09:20;;;;;;;13.80;4.82;;;12.80;66.40;;;;;;5053494;28;20048;-63
2021/09/23 03:11:46;;;;;;;11.55;5.10;;;12.70;66.60;;;;;;5071271;28;20021;-63
2021/09/23 03:14:12;;;;;;;10.05;4.50;;;12.70;66.70;;;;;;5059396;28;20021;-63
2021/09/23 03:16:39;;;;;;;8.93;4.70;;;12.70;66.70;;;;;;5053896;28;20086;-64
2021/09/23 03:19:04;;;;;;;7.03;4.20;;;12.70;66.50;;;;;;5054073;28;20377;-64
2021/09/23 03:21:30;;;;;;;11.75;5.07;;;12.70;66.40;;;;;;5053812;28;20021;-65
2021/09/23 03:23:56;;;;;;;12.25;5.38;;;12.60;66.40;;;;;;5056012;28;20028;-63
2021/09/23 03:26:22;;;;;;;10.13;4.82;;;12.60;66.50;;;;;;5089543;28;20114;-63
2021/09/23 03:28:47;;;;;;;13.57;5.32;;;12.60;66.70;;;;;;5093241;28;20024;-64
2021/09/23 03:31:13;;;;;;;8.52;4.95;;;12.50;66.70;;;;;;5060440;28;20013;-63
2021/09/23 03:33:39;;;;;;;10.13;5.38;;;12.50;66.90;;;;;;5053252;28;20025;-64
2021/09/23 03:36:05;;;;;;;9.85;4.72;;;12.50;67.00;;;;;;5053438;28;20037;-64
2021/09/23 03:38:31;;;;;;;13.38;5.13;;;12.50;67.00;;;;;;5053745;28;20032;-64
2021/09/23 03:40:57;;;;;;;9.15;5.15;;;12.40;67.00;;;;;;5053355;28;20549;-63
2021/09/23 03:43:23;;;;;;;12.77;6.03;;;12.40;67.00;;;;;;5053160;28;20036;-64
2021/09/23 03:45:50;;;;;;;10.23;5.43;;;12.40;67.10;;;;;;5067310;28;20036;-63
2021/09/23 03:48:20;;;;;;;8.15;4.13;;;12.30;67.20;;;;;;5091717;28;20040;-64
2021/09/23 03:50:46;;;;;;;8.63;5.15;;;12.30;67.30;;;;;;5079876;28;20377;-63
2021/09/23 03:53:13;;;;;;;10.15;4.70;;;12.30;67.20;;;;;;5058782;28;20029;-64
2021/09/23 03:55:39;;;;;;;9.85;5.22;;;12.30;67.30;;;;;;5071396;28;20021;-64
2021/09/23 03:58:05;;;;;;;15.70;6.97;;;12.30;67.30;;;;;;5071394;28;20029;-64
2021/09/23 04:00:31;;;;;;;9.20;5.38;;;12.30;67.40;;;;;;5062850;28;20024;-64
2021/09/23 04:02:57;;;;;;;11.20;5.32;;;12.30;67.60;;;;;;5059551;28;20040;-63
2021/09/23 04:05:23;;;;;;;12.40;5.53;;;12.20;67.70;;;;;;5056892;28;20494;-64
2021/09/23 04:07:49;;;;;;;10.07;5.40;;;12.20;67.90;;;;;;5057902;28;20039;-64
2021/09/23 04:10:14;;;;;;;12.07;6.18;;;12.20;67.90;;;;;;5074184;28;20017;-63
2021/09/23 04:12:40;;;;;;;15.13;5.47;;;12.20;68.10;;;;;;5055183;28;20082;-64
2021/09/23 04:15:07;;;;;;;8.52;4.78;;;12.10;68.10;;;;;;5062594;28;20024;-63
2021/09/23 04:17:34;;;;;;;9.63;4.88;;;12.10;68.10;;;;;;5072419;28;20017;-64
2021/09/23 04:20:00;;;;;;;14.07;5.28;;;12.10;68.10;;;;;;5067079;28;20379;-64
2021/09/23 04:22:26;;;;;;;9.50;5.43;;;12.10;68.00;;;;;;5054194;28;20051;-64
2021/09/23 04:24:52;;;;;;;15.43;6.55;;;12.10;68.00;;;;;;5052568;28;20097;-64
2021/09/23 04:27:18;;;;;;;16.05;6.85;;;12.10;68.10;;;;;;5052531;28;20402;-64
2021/09/23 04:29:44;;;;;;;12.50;7.85;;;12.00;68.20;;;;;;5058783;28;20047;-63
2021/09/23 04:32:10;;;;;;;13.50;7.78;;;12.00;68.30;;;;;;5070260;28;20119;-63
2021/09/23 04:34:36;;;;;;;10.70;7.13;;;12.00;69.20;;;;;;5051835;28;20085;-63
2021/09/23 04:37:03;;;;;;;12.38;8.25;;;12.00;68.60;;;;;;5049503;28;20029;-63
2021/09/23 04:39:29;;;;;;;15.10;9.18;;;12.00;68.60;;;;;;5052219;28;20082;-63
2021/09/23 04:41:55;;;;;;;14.20;8.05;;;12.00;68.70;;;;;;5069361;28;20054;-63
2021/09/23 04:44:21;;;;;;;15.75;8.52;;;12.00;68.60;;;;;;5053847;28;20505;-63
2021/09/23 04:46:47;;;;;;;9.93;7.82;;;11.90;68.40;;;;;;5051075;28;20033;-64
2021/09/23 04:49:13;;;;;;;12.90;8.63;;;11.90;68.20;;;;;;5050655;28;20044;-62
2021/09/23 04:51:40;;;;;;;12.73;7.97;;;12.00;68.30;;;;;;5062961;28;20028;-63
2021/09/23 04:54:07;;;;;;;14.20;8.93;;;11.90;68.30;;;;;;5052483;28;20025;-62
2021/09/23 04:56:33;;;;;;;14.05;8.48;;;11.90;68.40;;;;;;5054489;28;20544;-63
2021/09/23 04:58:59;;;;;;;17.10;8.38;;;11.90;68.60;;;;;;5050476;28;20025;-64
2021/09/23 05:01:25;;;;;;;17.02;9.00;;;11.90;68.60;;;;;;5054202;28;20049;-63
2021/09/23 05:03:52;;;;;;;13.25;8.48;;;11.90;68.70;;;;;;5051259;28;20035;-62
2021/09/23 05:06:18;;;;;;;11.73;8.30;;;11.90;68.80;;;;;;5051743;28;20490;-63
2021/09/23 05:08:44;;;;;;;13.75;8.88;;;11.90;68.70;;;;;;5051866;28;20025;-63
2021/09/23 05:11:09;;;;;;;10.45;7.75;;;11.90;68.60;;;;;;5064991;28;20116;-63
2021/09/23 05:13:35;;;;;;;10.55;7.38;;;11.90;68.60;;;;;;5067852;28;20031;-64
2021/09/23 05:16:01;;;;;;;10.45;7.25;;;11.90;68.40;;;;;;5070476;28;20434;-64
2021/09/23 05:18:27;;;;;;;14.18;8.50;;;11.90;68.50;;;;;;5071086;28;20063;-64
2021/09/23 05:20:52;;;;;;;22.70;9.13;;;11.90;69.40;;;;;;5069790;28;20041;-63
2021/09/23 05:23:19;;;;;;;15.93;9.00;;;11.90;68.80;;;;;;5053512;28;20056;-63
2021/09/23 05:25:44;;;;;;;13.35;7.75;;;11.90;69.00;;;;;;5051945;28;20104;-63
2021/09/23 05:28:10;;;;;;;13.88;9.10;;;11.90;69.20;;;;;;5051619;28;20100;-63
2021/09/23 05:30:37;;;;;;;13.27;8.10;;;11.90;69.30;;;;;;5061730;28;20530;-63
2021/09/23 05:33:03;;;;;;;11.85;7.93;;;12.00;69.50;;;;;;5057637;28;20016;-64
2021/09/23 05:35:29;;;;;;;12.05;7.38;;;12.00;69.40;;;;;;5065294;28;20054;-63
2021/09/23 05:37:55;;;;;;;12.23;7.63;;;12.00;69.40;;;;;;5090570;28;20126;-63
2021/09/23 05:40:21;;;;;;;11.38;6.88;;;12.00;69.30;;;;;;5090579;28;20028;-64
2021/09/23 05:42:47;;;;;;;14.93;8.23;;;12.10;69.30;;;;;;5065286;28;20486;-64
2021/09/23 05:45:13;;;;;;;12.88;7.25;;;12.10;69.20;;;;;;5074976;28;20029;-64
2021/09/23 05:47:40;;;;;;;13.40;7.13;;;12.20;69.20;;;;;;5075652;28;20490;-65
2021/09/23 05:50:07;;;;;;;12.45;6.85;;;12.20;69.10;;;;;;5068398;28;20112;-64
2021/09/23 05:52:33;;;;;;;9.93;6.68;;;12.20;69.00;;;;;;5055449;28;20021;-63
2021/09/23 05:54:59;;;;;;;12.45;7.40;;;12.30;69.10;;;;;;5062867;28;20129;-63
2021/09/23 05:57:32;;;;;;;14.95;6.90;;;12.30;69.10;;;;;;5063629;28;20105;-63
2021/09/23 06:00:17;;;;;;;10.20;7.20;;;12.30;69.00;;;;;;5052994;28;20021;-64
2021/09/23 06:02:44;;;;;;;10.98;6.93;;;12.40;69.00;;;;;;5053749;28;20045;-63
2021/09/23 06:05:12;;;;;;;18.55;8.07;;;12.40;68.80;;;;;;5063311;28;20028;-64
2021/09/23 06:07:38;;;;;;;12.07;6.97;;;12.50;68.70;;;;;;5069251;28;20067;-64
2021/09/23 06:10:05;;;;;;;12.18;6.95;;;12.50;68.60;;;;;;5053923;28;20040;-64
2021/09/23 06:12:32;;;;;;;17.92;8.10;;;12.60;68.60;;;;;;5054243;28;20028;-62
2021/09/23 06:14:58;;;;;;;13.68;7.57;;;12.60;68.60;;;;;;5054257;28;20104;-63
2021/09/23 06:17:24;;;;;;;14.98;6.85;;;12.70;68.50;;;;;;5054925;28;20577;-63
2021/09/23 06:19:50;;;;;;;10.90;6.43;;;12.70;68.40;;;;;;5065052;28;20383;-64
2021/09/23 06:22:15;;;;;;;10.27;6.30;;;12.80;68.30;;;;;;5052698;28;20025;-64
2021/09/23 06:24:41;;;;;;;8.23;6.13;;;12.80;68.20;;;;;;5053413;28;20033;-64
2021/09/23 06:27:07;;;;;;;18.20;6.85;;;12.90;68.10;;;;;;5053185;28;20112;-63
2021/09/23 06:29:34;;;;;;;10.93;5.97;;;12.90;68.00;;;;;;5054101;28;20025;-65
2021/09/23 06:32:00;;;;;;;9.20;5.88;;;13.00;68.00;;;;;;5054217;28;20399;-65
2021/09/23 06:34:26;;;;;;;9.55;5.38;;;13.00;67.90;;;;;;5054041;28;20035;-65
2021/09/23 06:36:51;;;;;;;12.57;5.95;;;13.10;67.80;;;;;;5054169;28;20025;-64
2021/09/23 06:39:17;;;;;;;8.88;5.80;;;13.10;67.70;;;;;;5053963;28;20025;-64
2021/09/23 06:41:44;;;;;;;7.05;4.97;;;13.20;67.70;;;;;;5071179;28;20020;-64
2021/09/23 06:44:10;;;;;;;8.30;5.35;;;13.20;68.40;;;;;;5072051;28;20112;-64
2021/09/23 06:46:36;;;;;;;8.77;5.50;;;13.30;67.60;;;;;;5072679;28;20035;-66
2021/09/23 06:49:03;;;;;;;9.07;5.78;;;13.30;67.40;;;;;;5059241;28;20421;-65
2021/09/23 06:51:29;;;;;;;10.90;5.05;;;13.40;67.20;;;;;;5059886;28;20394;-65
2021/09/23 06:53:56;;;;;;;8.52;5.03;;;13.40;67.10;;;;;;5053582;28;20029;-64
2021/09/23 06:56:22;;;;;;;7.55;5.18;;;13.50;67.00;;;;;;5053481;28;20083;-64
2021/09/23 06:58:48;;;;;;;11.88;5.30;;;13.50;66.90;;;;;;5054138;28;20036;-64
2021/09/23 07:01:14;;;;;;;10.73;5.55;;;13.60;66.70;;;;;;5056620;28;20383;-64
2021/09/23 07:03:39;;;;;;;9.43;6.18;;;13.70;66.80;;;;;;5069524;28;20047;-65
2021/09/23 07:06:05;;;;;;;12.88;8.25;;;13.70;66.60;;;;;;5071367;28;20506;-65
2021/09/23 07:08:31;;;;;;;7.72;5.30;;;13.80;66.50;;;;;;5053940;28;20060;-64
2021/09/23 07:10:57;;;;;;;8.93;4.10;;;13.80;66.30;;;;;;5065678;28;20031;-65
2021/09/23 07:13:23;;;;;;;6.90;4.43;;;13.90;66.40;;;;;;5053280;28;20356;-65
2021/09/23 07:15:48;;;;;;;10.05;5.07;;;14.00;66.40;;;;;;5053407;28;20025;-66
2021/09/23 07:18:14;;;;;;;6.90;5.18;;;14.10;66.30;;;;;;5052543;28;20036;-65
2021/09/23 07:20:40;;;;;;;9.02;5.32;;;14.20;66.10;;;;;;5053887;28;20080;-65
2021/09/23 07:23:06;;;;;;;10.73;5.72;;;14.20;66.10;;;;;;5054116;28;20014;-65
2021/09/23 07:25:33;;;;;;;8.73;5.20;;;14.30;66.00;;;;;;5071555;28;20032;-65
2021/09/23 07:28:01;;;;;;;7.95;4.43;;;14.40;66.00;;;;;;5066994;28;20017;-65
2021/09/23 07:30:27;;;;;;;12.05;5.40;;;14.50;65.80;;;;;;5053012;28;20034;-65
2021/09/23 07:32:53;;;;;;;12.23;5.47;;;14.50;65.70;;;;;;5051967;28;20036;-65
2021/09/23 07:35:19;;;;;;;8.77;5.53;;;14.60;65.20;;;;;;5053893;28;20096;-65
2021/09/23 07:37:45;;;;;;;10.75;5.18;;;14.70;65.20;;;;;;5053784;28;20025;-65
2021/09/23 07:40:12;;;;;;;11.73;6.82;;;14.80;65.10;;;;;;5053736;28;20029;-65
2021/09/23 07:42:39;;;;;;;11.45;5.80;;;14.90;65.00;;;;;;5053758;28;20500;-66
2021/09/23 07:45:06;;;;;;;15.88;7.22;;;15.00;64.80;;;;;;5053427;28;20024;-65
2021/09/23 07:47:32;;;;;;;9.18;5.43;;;15.10;64.20;;;;;;5072054;28;20029;-65
2021/09/23 07:49:58;;;;;;;7.95;5.32;;;15.20;64.30;;;;;;5055339;28;20021;-65
2021/09/23 07:52:24;;;;;;;17.77;6.30;;;15.20;64.40;;;;;;5052506;28;20071;-65
2021/09/23 07:54:55;;;;;;;11.27;6.25;;;15.30;64.20;;;;;;5052241;28;20021;-66
2021/09/23 07:57:21;;;;;;;10.45;6.60;;;15.40;63.80;;;;;;5053545;28;20028;-65
2021/09/23 07:59:47;;;;;;;15.35;7.70;;;15.50;63.70;;;;;;5053244;28;20087;-65
2021/09/23 08:02:13;;;;;;;21.20;8.20;;;15.50;63.40;;;;;;5051625;28;20045;-65
2021/09/23 08:04:39;;;;;;;11.30;7.68;;;15.70;63.40;;;;;;5053277;28;20486;-65
2021/09/23 08:07:04;;;;;;;14.98;8.15;;;15.80;63.40;;;;;;5053877;28;20394;-65
2021/09/23 08:09:30;;;;;;;18.77;10.50;;;15.90;63.10;;;;;;5073151;28;20539;-66
2021/09/23 08:11:56;;;;;;;16.13;9.80;;;15.90;62.20;;;;;;5072223;28;20027;-65
2021/09/23 08:14:22;;;;;;;16.65;9.48;;;16.00;62.20;;;;;;5071842;28;20032;-65
2021/09/23 08:16:49;;;;;;;13.85;8.43;;;16.10;62.20;;;;;;5072495;28;20028;-65
2021/09/23 08:19:15;;;;;;;12.85;7.20;;;16.20;61.70;;;;;;5072930;28;20024;-65
2021/09/23 08:21:41;;;;;;;11.55;7.38;;;16.20;61.50;;;;;;5073168;28;20023;-66
2021/09/23 08:24:07;;;;;;;14.18;8.38;;;16.30;61.60;;;;;;5072781;28;20444;-65
2021/09/23 08:26:33;;;;;;;12.35;7.28;;;16.40;61.70;;;;;;5059544;28;20043;-65
2021/09/23 08:28:59;;;;;;;14.20;8.07;;;16.40;61.40;;;;;;5053563;28;20108;-66
2021/09/23 08:31:25;;;;;;;17.13;9.05;;;16.50;61.20;;;;;;5088870;28;20150;-64
2021/09/23 08:33:51;;;;;;;19.00;8.52;;;16.50;61.00;;;;;;5092092;28;20381;-66
2021/09/23 08:36:17;;;;;;;18.73;8.63;;;16.60;61.20;;;;;;5091702;28;20036;-65
2021/09/23 08:38:43;;;;;;;16.92;8.40;;;16.70;61.10;;;;;;5092837;28;20032;-65
2021/09/23 08:41:09;;;;;;;11.35;7.70;;;16.80;61.30;;;;;;5092844;28;20032;-65
2021/09/23 08:43:35;;;;;;;19.58;9.93;;;16.80;61.10;;;;;;5092860;28;20028;-66
2021/09/23 08:46:02;;;;;;;18.05;10.15;;;16.90;60.70;;;;;;5092876;28;20046;-66
2021/09/23 08:48:31;;;;;;;16.13;9.98;;;16.90;60.10;;;;;;5092552;28;20047;-65
2021/09/23 08:50:56;;;;;;;16.55;9.32;;;17.00;60.20;;;;;;5083632;28;20064;-66
2021/09/23 08:53:24;;;;;;;22.90;10.35;;;17.10;60.40;;;;;;5071621;28;20056;-65
2021/09/23 08:55:50;;;;;;;17.75;9.55;;;17.10;59.60;;;;;;5071569;28;20099;-66
2021/09/23 08:58:16;;;;;;;18.75;10.98;;;17.20;59.50;;;;;;5055407;28;20100;-65
2021/09/23 09:01:06;;;;;;;12.30;8.40;;;17.30;59.70;;;;;;5051756;28;20036;-66
2021/09/23 09:03:33;;;;;;;13.20;7.50;;;17.40;59.60;;;;;;5050849;28;20048;-66
2021/09/23 09:06:11;;;;;;;10.50;6.22;;;17.50;59.00;;;;;;5052253;28;20096;-66
2021/09/23 09:08:39;;;;;;;18.00;6.90;;;17.60;58.80;;;;;;5052133;28;20029;-65
2021/09/23 09:11:07;;;;;;;14.88;7.05;;;17.70;58.80;;;;;;5050910;28;20041;-65
2021/09/23 09:13:44;;;;;;;11.82;7.47;;;17.80;58.60;;;;;;5057737;28;20113;-65
2021/09/23 09:16:17;;;;;;;19.92;8.27;;;17.80;58.20;;;;;;5070686;28;20028;-64
2021/09/23 09:18:45;;;;;;;14.60;7.90;;;17.90;58.20;;;;;;5070350;28;20408;-65
2021/09/23 09:21:12;;;;;;;14.18;8.18;;;18.00;57.70;;;;;;5069037;28;20036;-64
2021/09/23 09:23:55;;;;;;;13.63;8.18;;;18.00;57.00;;;;;;5072045;28;20025;-65
2021/09/23 09:26:43;;;;;;;14.68;6.35;;;18.10;57.10;;;;;;5059267;28;20407;-66
2021/09/23 09:29:12;;;;;;;11.05;5.93;;;18.20;57.30;;;;;;5051883;28;20021;-65
2021/09/23 09:31:46;;;;;;;9.27;7.05;;;18.30;57.40;;;;;;5050618;28;20063;-65
2021/09/23 09:34:12;;;;;;;13.23;6.57;;;18.30;57.10;;;;;;5051418;28;20620;-65
2021/09/23 09:36:40;;;;;;;9.52;5.38;;;18.40;57.10;;;;;;5071685;28;20186;-66
2021/09/23 09:39:16;;;;;;;9.15;6.20;;;18.50;57.00;;;;;;5071845;28;20031;-66
2021/09/23 09:41:46;;;;;;;9.95;6.57;;;18.50;56.60;;;;;;5070742;28;20101;-66
2021/09/23 09:44:14;;;;;;;12.13;5.82;;;18.60;56.10;;;;;;5071371;28;20134;-65
2021/09/23 09:46:43;;;;;;;10.52;6.15;;;18.70;55.80;;;;;;5071862;28;20032;-65
2021/09/23 09:49:09;;;;;;;33.53;6.88;;;18.70;56.10;;;;;;5071697;28;20047;-66
2021/09/23 09:51:40;;;;;;;10.73;5.35;;;18.80;56.20;;;;;;5071857;28;20025;-66
2021/09/23 09:54:08;;;;;;;16.10;5.60;;;18.80;56.10;;;;;;5071731;28;20013;-66
2021/09/23 09:56:33;;;;;;;9.30;5.57;;;18.90;55.50;;;;;;5070332;28;20426;-66
2021/09/23 09:59:10;;;;;;;9.07;4.80;;;18.90;56.50;;;;;;5071069;28;20063;-66
2021/09/23 10:01:37;;;;;;;12.57;5.03;;;19.00;55.30;;;;;;5069942;28;20041;-67
2021/09/23 10:04:04;;;;;;;20.35;5.68;;;19.00;55.40;;;;;;5070755;28;20440;-67
2021/09/23 10:06:32;;;;;;;18.05;5.97;;;19.10;55.40;;;;;;5071263;28;20080;-66
2021/09/23 10:08:58;;;;;;;8.68;5.25;;;19.20;55.20;;;;;;5071594;28;20066;-66
2021/09/23 10:11:25;;;;;;;8.32;4.70;;;19.20;54.80;;;;;;5071722;28;20434;-66
2021/09/23 10:13:53;;;;;;;9.35;4.53;;;19.30;54.20;;;;;;5066106;28;20024;-66
2021/09/23 10:16:20;;;;;;;10.15;5.28;;;19.30;53.20;;;;;;5050247;28;20025;-65
2021/09/23 10:18:47;;;;;;;14.48;3.70;;;19.30;53.50;;;;;;5058596;28;20477;-66
2021/09/23 10:21:13;;;;;;;11.45;4.80;;;19.40;54.50;;;;;;5071245;28;20024;-67
2021/09/23 10:23:40;;;;;;;11.02;5.30;;;19.50;54.40;;;;;;5069820;28;20116;-66
2021/09/23 10:26:15;;;;;;;10.88;4.72;;;19.50;53.80;;;;;;5074148;28;20419;-67
2021/09/23 10:28:45;;;;;;;13.52;4.65;;;19.60;53.20;;;;;;5075037;28;20016;-66
2021/09/23 10:31:16;;;;;;;15.98;4.05;;;19.60;53.50;;;;;;5074160;28;20420;-67
2021/09/23 10:33:42;;;;;;;7.72;3.97;;;19.60;53.00;;;;;;5075107;28;20028;-66
2021/09/23 10:36:09;;;;;;;7.88;3.70;;;19.70;52.70;;;;;;5074988;28;20420;-66
2021/09/23 10:38:36;;;;;;;8.10;3.80;;;19.70;52.80;;;;;;5074800;28;20382;-66
2021/09/23 10:41:02;;;;;;;8.10;3.40;;;19.80;52.90;;;;;;5073431;28;20020;-67
2021/09/23 10:43:29;;;;;;;7.75;3.55;;;19.90;52.40;;;;;;5074495;28;20105;-66
2021/09/23 10:45:56;;;;;;;10.80;3.60;;;19.90;51.80;;;;;;5074173;28;20514;-66
2021/09/23 10:48:22;;;;;;;10.25;4.43;;;19.90;51.70;;;;;;5072252;28;20067;-67
2021/09/23 10:50:48;;;;;;;12.07;3.88;;;20.00;51.50;;;;;;5074654;28;20024;-67
2021/09/23 10:53:14;;;;;;;9.10;3.63;;;20.00;51.80;;;;;;5074710;28;20021;-66
2021/09/23 10:55:42;;;;;;;17.80;4.05;;;20.10;52.40;;;;;;5064530;28;20025;-65
2021/09/23 10:58:10;;;;;;;4.10;2.95;;;20.20;52.30;;;;;;5074639;28;20013;-66
2021/09/23 11:00:37;;;;;;;10.18;3.90;;;20.20;52.70;;;;;;5074593;28;20093;-65
2021/09/23 11:03:12;;;;;;;9.57;3.95;;;20.30;52.30;;;;;;5072416;28;20048;-65
2021/09/23 11:05:41;;;;;;;7.18;3.58;;;20.30;52.50;;;;;;5073415;28;20485;-66
2021/09/23 11:08:12;;;;;;;8.38;3.70;;;20.40;51.70;;;;;;5073214;28;20048;-66
2021/09/23 11:10:41;;;;;;;9.90;3.25;;;20.40;50.70;;;;;;5072211;28;20031;-65
2021/09/23 11:13:09;;;;;;;14.18;4.32;;;20.50;50.80;;;;;;5074218;28;20035;-66
2021/09/23 11:15:38;;;;;;;9.65;3.55;;;20.50;50.70;;;;;;5054182;28;20548;-66
2021/09/23 11:18:04;;;;;;;8.38;3.60;;;20.50;50.60;;;;;;5054193;28;20025;-66
2021/09/23 11:20:33;;;;;;;8.23;3.72;;;20.60;50.40;;;;;;5060137;28;20032;-67
2021/09/23 11:23:07;;;;;;;10.05;3.72;;;20.60;50.10;;;;;;5074396;28;20031;-66
2021/09/23 11:25:36;;;;;;;5.72;3.17;;;20.60;49.30;;;;;;5070118;28;20107;-66
2021/09/23 11:28:02;;;;;;;6.35;3.70;;;20.60;49.80;;;;;;5072959;28;20543;-66
2021/09/23 11:30:31;;;;;;;11.40;3.83;;;20.70;49.80;;;;;;5072319;28;20134;-66
2021/09/23 11:33:00;;;;;;;11.05;4.50;;;20.70;49.50;;;;;;5073378;28;20067;-67
2021/09/23 11:35:28;;;;;;;8.35;3.47;;;20.70;49.20;;;;;;5073869;28;20047;-67
2021/09/23 11:37:56;;;;;;;10.77;3.97;;;20.80;49.40;;;;;;5073283;28;20021;-67
2021/09/23 11:40:29;;;;;;;11.68;3.53;;;20.80;50.20;;;;;;5073818;28;20433;-66
2021/09/23 11:42:56;;;;;;;10.73;3.97;;;20.90;49.90;;;;;;5073659;28;20453;-67
2021/09/23 11:45:27;;;;;;;10.20;3.35;;;21.00;50.20;;;;;;5072506;28;20121;-66
2021/09/23 11:48:00;;;;;;;12.30;4.15;;;21.00;49.70;;;;;;5073099;28;20431;-66
2021/09/23 11:50:31;;;;;;;10.02;3.58;;;21.10;49.40;;;;;;5073505;28;20078;-66
2021/09/23 11:53:24;;;;;;;11.80;3.55;;;21.10;49.40;;;;;;5066294;28;20031;-66
2021/09/23 11:56:17;;;;;;;7.20;3.90;;;21.20;49.40;;;;;;5054716;28;20033;-66
2021/09/23 11:58:47;;;;;;;12.18;4.22;;;21.20;49.00;;;;;;5053537;28;20033;-65
2021/09/23 12:01:14;;;;;;;9.20;4.13;;;21.30;47.40;;;;;;5053095;28;20025;-65
2021/09/23 12:03:42;;;;;;;14.15;4.80;;;21.30;48.30;;;;;;5053343;28;20021;-65
2021/09/23 12:06:10;;;;;;;15.10;4.18;;;21.30;48.50;;;;;;5053158;28;20047;-65
2021/09/23 12:08:36;;;;;;;10.23;3.50;;;21.40;48.20;;;;;;5066428;28;20028;-66
2021/09/23 12:11:04;;;;;;;8.52;3.28;;;21.40;47.80;;;;;;5071838;28;20496;-66
2021/09/23 12:13:37;;;;;;;7.00;3.13;;;21.40;47.30;;;;;;5072031;28;20044;-65
2021/09/23 12:16:09;;;;;;;6.70;3.13;;;21.50;47.30;;;;;;5071922;28;20116;-66
2021/09/23 12:18:36;;;;;;;12.23;3.22;;;21.50;46.40;;;;;;5073064;28;20023;-65
2021/09/23 12:21:06;;;;;;;18.80;3.97;;;21.60;46.40;;;;;;5072918;28;20478;-66
2021/09/23 12:23:41;;;;;;;11.32;4.10;;;21.60;47.10;;;;;;5072917;28;20024;-66
2021/09/23 12:26:14;;;;;;;6.05;2.55;;;21.70;46.90;;;;;;5071534;28;20035;-66
2021/09/23 12:29:03;;;;;;;9.55;3.53;;;21.70;46.40;;;;;;5070581;28;20024;-66
2021/09/23 12:31:30;;;;;;;12.18;3.53;;;21.80;46.70;;;;;;5089974;28;20093;-66
2021/09/23 12:34:07;;;;;;;4.10;2.53;;;21.80;46.70;;;;;;5090830;28;20112;-66
2021/09/23 12:36:47;;;;;;;12.40;2.90;;;21.80;45.90;;;;;;5092075;28;20028;-66
2021/09/23 12:39:19;;;;;;;4.93;2.70;;;21.90;46.60;;;;;;5093026;28;20028;-67
2021/09/23 12:41:51;;;;;;;6.32;2.50;;;22.00;45.40;;;;;;5092894;28;20555;-65
2021/09/23 12:44:19;;;;;;;7.20;2.58;;;22.00;45.70;;;;;;5092815;28;20067;-67